sensor_id;sensor_type;location;lat;lon;timestamp;P1;durP1;ratioP1;P2;durP2;ratioP2
27921;SDS011;15261;50.356;10.340;2022-10-18T00:02:02;9.55;;;7.60;;
27921;SDS011;15261;50.356;10.340;2022-10-18T00:07:29;8.32;;;7.53;;
27921;SDS011;15261;50.356;10.340;2022-10-18T00:09:54;10.93;;;7.57;;
27921;SDS011;15261;50.356;10.340;2022-10-18T00:12:20;11.50;;;7.55;;
27921;SDS011;15261;50.356;10.340;2022-10-18T00:14:47;12.15;;;7.70;;
27921;SDS011;15261;50.356;10.340;2022-10-18T00:17:14;14.65;;;11.63;;
27921;SDS011;15261;50.356;10.340;2022-10-18T00:19:40;18.27;;;10.20;;
27921;SDS011;15261;50.356;10.340;2022-10-18T00:22:06;11.23;;;9.20;;
27921;SDS011;15261;50.356;10.340;2022-10-18T00:24:31;11.65;;;7.85;;
27921;SDS011;15261;50.356;10.340;2022-10-18T00:26:57;10.45;;;7.82;;
27921;SDS011;15261;50.356;10.340;2022-10-18T00:29:22;9.85;;;7.60;;
27921;SDS011;15261;50.356;10.340;2022-10-18T00:31:48;12.68;;;8.48;;
27921;SDS011;15261;50.356;10.340;2022-10-18T00:34:14;13.20;;;8.23;;
27921;SDS011;15261;50.356;10.340;2022-10-18T00:36:40;14.13;;;9.13;;
27921;SDS011;15261;50.356;10.340;2022-10-18T00:39:07;9.35;;;8.10;;
27921;SDS011;15261;50.356;10.340;2022-10-18T00:41:36;10.10;;;8.10;;
27921;SDS011;15261;50.356;10.340;2022-10-18T00:46:40;11.38;;;7.85;;
27921;SDS011;15261;50.356;10.340;2022-10-18T00:52:14;11.20;;;8.13;;
27921;SDS011;15261;50.356;10.340;2022-10-18T00:54:50;10.90;;;7.68;;
27921;SDS011;15261;50.356;10.340;2022-10-18T00:57:16;10.52;;;8.00;;
27921;SDS011;15261;50.356;10.340;2022-10-18T00:59:42;10.45;;;7.45;;
27921;SDS011;15261;50.356;10.340;2022-10-18T01:02:10;9.57;;;8.15;;
27921;SDS011;15261;50.356;10.340;2022-10-18T01:04:38;13.63;;;7.32;;
27921;SDS011;15261;50.356;10.340;2022-10-18T01:07:27;10.77;;;8.10;;
27921;SDS011;15261;50.356;10.340;2022-10-18T01:15:30;11.48;;;8.18;;
27921;SDS011;15261;50.356;10.340;2022-10-18T01:26:44;26.67;;;8.95;;
27921;SDS011;15261;50.356;10.340;2022-10-18T01:32:39;94.10;;;10.35;;
27921;SDS011;15261;50.356;10.340;2022-10-18T01:35:12;60.00;;;9.75;;
27921;SDS011;15261;50.356;10.340;2022-10-18T01:37:42;82.57;;;10.20;;
27921;SDS011;15261;50.356;10.340;2022-10-18T01:40:10;190.48;;;14.00;;
27921;SDS011;15261;50.356;10.340;2022-10-18T01:42:38;136.07;;;11.88;;
27921;SDS011;15261;50.356;10.340;2022-10-18T01:45:04;53.65;;;10.70;;
27921;SDS011;15261;50.356;10.340;2022-10-18T01:47:32;36.92;;;10.05;;
27921;SDS011;15261;50.356;10.340;2022-10-18T01:53:24;13.90;;;9.00;;
27921;SDS011;15261;50.356;10.340;2022-10-18T01:58:45;10.18;;;8.25;;
27921;SDS011;15261;50.356;10.340;2022-10-18T02:01:19;15.85;;;9.18;;
27921;SDS011;15261;50.356;10.340;2022-10-18T02:03:46;9.23;;;8.30;;
27921;SDS011;15261;50.356;10.340;2022-10-18T02:06:19;8.40;;;7.60;;
27921;SDS011;15261;50.356;10.340;2022-10-18T02:09:01;7.82;;;7.00;;
27921;SDS011;15261;50.356;10.340;2022-10-18T02:11:31;8.32;;;7.22;;
27921;SDS011;15261;50.356;10.340;2022-10-18T02:14:02;14.70;;;8.23;;
27921;SDS011;15261;50.356;10.340;2022-10-18T02:16:44;9.80;;;8.90;;
27921;SDS011;15261;50.356;10.340;2022-10-18T02:19:17;8.85;;;7.80;;
27921;SDS011;15261;50.356;10.340;2022-10-18T02:21:54;9.10;;;8.40;;
27921;SDS011;15261;50.356;10.340;2022-10-18T02:24:22;11.20;;;9.13;;
27921;SDS011;15261;50.356;10.340;2022-10-18T02:26:50;8.30;;;7.60;;
27921;SDS011;15261;50.356;10.340;2022-10-18T02:29:16;9.68;;;8.10;;
27921;SDS011;15261;50.356;10.340;2022-10-18T02:31:43;7.70;;;7.10;;
27921;SDS011;15261;50.356;10.340;2022-10-18T02:36:53;7.72;;;7.03;;
27921;SDS011;15261;50.356;10.340;2022-10-18T02:39:41;7.30;;;6.65;;
27921;SDS011;15261;50.356;10.340;2022-10-18T02:42:09;7.68;;;6.97;;
27921;SDS011;15261;50.356;10.340;2022-10-18T02:44:36;7.15;;;6.55;;
27921;SDS011;15261;50.356;10.340;2022-10-18T02:47:03;7.93;;;7.32;;
27921;SDS011;15261;50.356;10.340;2022-10-18T02:49:30;9.05;;;7.40;;
27921;SDS011;15261;50.356;10.340;2022-10-18T02:51:55;7.78;;;7.18;;
27921;SDS011;15261;50.356;10.340;2022-10-18T02:54:21;7.43;;;6.80;;
27921;SDS011;15261;50.356;10.340;2022-10-18T02:56:47;7.68;;;6.88;;
27921;SDS011;15261;50.356;10.340;2022-10-18T02:59:13;8.63;;;6.80;;
27921;SDS011;15261;50.356;10.340;2022-10-18T03:01:38;7.78;;;7.03;;
27921;SDS011;15261;50.356;10.340;2022-10-18T03:04:04;7.38;;;6.68;;
27921;SDS011;15261;50.356;10.340;2022-10-18T03:06:30;8.32;;;6.38;;
27921;SDS011;15261;50.356;10.340;2022-10-18T03:08:56;9.45;;;6.80;;
27921;SDS011;15261;50.356;10.340;2022-10-18T03:11:22;8.48;;;6.40;;
27921;SDS011;15261;50.356;10.340;2022-10-18T03:13:47;8.00;;;7.32;;
27921;SDS011;15261;50.356;10.340;2022-10-18T03:16:14;12.25;;;8.23;;
27921;SDS011;15261;50.356;10.340;2022-10-18T03:18:40;11.68;;;8.70;;
27921;SDS011;15261;50.356;10.340;2022-10-18T03:21:06;16.13;;;11.70;;
27921;SDS011;15261;50.356;10.340;2022-10-18T03:23:32;47.47;;;42.67;;
27921;SDS011;15261;50.356;10.340;2022-10-18T03:25:58;31.13;;;27.35;;
27921;SDS011;15261;50.356;10.340;2022-10-18T03:28:24;39.45;;;35.67;;
27921;SDS011;15261;50.356;10.340;2022-10-18T03:30:49;22.40;;;19.92;;
27921;SDS011;15261;50.356;10.340;2022-10-18T03:33:15;13.02;;;11.65;;
27921;SDS011;15261;50.356;10.340;2022-10-18T03:35:41;10.75;;;9.73;;
27921;SDS011;15261;50.356;10.340;2022-10-18T03:38:06;17.63;;;11.32;;
27921;SDS011;15261;50.356;10.340;2022-10-18T03:40:32;15.52;;;12.25;;
27921;SDS011;15261;50.356;10.340;2022-10-18T03:42:58;13.15;;;11.80;;
27921;SDS011;15261;50.356;10.340;2022-10-18T03:45:24;12.07;;;10.98;;
27921;SDS011;15261;50.356;10.340;2022-10-18T03:47:49;10.98;;;9.95;;
27921;SDS011;15261;50.356;10.340;2022-10-18T03:50:15;15.70;;;9.85;;
27921;SDS011;15261;50.356;10.340;2022-10-18T03:52:41;11.00;;;9.93;;
27921;SDS011;15261;50.356;10.340;2022-10-18T03:55:06;10.02;;;9.05;;
27921;SDS011;15261;50.356;10.340;2022-10-18T03:57:32;10.90;;;8.95;;
27921;SDS011;15261;50.356;10.340;2022-10-18T03:59:57;10.30;;;8.98;;
27921;SDS011;15261;50.356;10.340;2022-10-18T04:02:23;9.00;;;8.18;;
27921;SDS011;15261;50.356;10.340;2022-10-18T04:04:49;9.43;;;8.07;;
27921;SDS011;15261;50.356;10.340;2022-10-18T04:07:14;8.55;;;7.82;;
27921;SDS011;15261;50.356;10.340;2022-10-18T04:09:40;9.15;;;8.18;;
27921;SDS011;15261;50.356;10.340;2022-10-18T04:12:05;8.63;;;7.80;;
27921;SDS011;15261;50.356;10.340;2022-10-18T04:14:31;9.70;;;7.93;;
27921;SDS011;15261;50.356;10.340;2022-10-18T04:16:56;9.88;;;7.38;;
27921;SDS011;15261;50.356;10.340;2022-10-18T04:19:22;9.30;;;7.50;;
27921;SDS011;15261;50.356;10.340;2022-10-18T04:21:48;9.48;;;7.93;;
27921;SDS011;15261;50.356;10.340;2022-10-18T04:24:15;9.63;;;7.28;;
27921;SDS011;15261;50.356;10.340;2022-10-18T04:26:41;11.13;;;7.22;;
27921;SDS011;15261;50.356;10.340;2022-10-18T04:29:07;10.50;;;8.00;;
27921;SDS011;15261;50.356;10.340;2022-10-18T04:31:33;9.05;;;7.47;;
27921;SDS011;15261;50.356;10.340;2022-10-18T04:34:14;9.95;;;7.50;;
27921;SDS011;15261;50.356;10.340;2022-10-18T04:40:01;8.65;;;7.70;;
27921;SDS011;15261;50.356;10.340;2022-10-18T04:42:28;8.65;;;7.78;;
27921;SDS011;15261;50.356;10.340;2022-10-18T04:44:53;8.07;;;7.47;;
27921;SDS011;15261;50.356;10.340;2022-10-18T04:47:19;9.65;;;7.93;;
27921;SDS011;15261;50.356;10.340;2022-10-18T04:49:45;8.75;;;7.90;;
27921;SDS011;15261;50.356;10.340;2022-10-18T04:52:10;8.27;;;7.57;;
27921;SDS011;15261;50.356;10.340;2022-10-18T04:54:36;8.35;;;7.55;;
27921;SDS011;15261;50.356;10.340;2022-10-18T04:57:02;8.88;;;7.72;;
27921;SDS011;15261;50.356;10.340;2022-10-18T04:59:27;8.27;;;7.55;;
27921;SDS011;15261;50.356;10.340;2022-10-18T05:01:53;7.50;;;6.80;;
27921;SDS011;15261;50.356;10.340;2022-10-18T05:04:18;8.02;;;7.43;;
27921;SDS011;15261;50.356;10.340;2022-10-18T05:06:44;8.77;;;8.07;;
27921;SDS011;15261;50.356;10.340;2022-10-18T05:09:10;10.27;;;9.38;;
27921;SDS011;15261;50.356;10.340;2022-10-18T05:11:35;9.80;;;8.82;;
27921;SDS011;15261;50.356;10.340;2022-10-18T05:14:01;9.95;;;9.02;;
27921;SDS011;15261;50.356;10.340;2022-10-18T05:16:26;8.05;;;7.45;;
27921;SDS011;15261;50.356;10.340;2022-10-18T05:18:52;8.13;;;7.53;;
27921;SDS011;15261;50.356;10.340;2022-10-18T05:21:18;8.00;;;7.22;;
27921;SDS011;15261;50.356;10.340;2022-10-18T05:23:44;8.55;;;7.80;;
27921;SDS011;15261;50.356;10.340;2022-10-18T05:26:09;9.02;;;8.30;;
27921;SDS011;15261;50.356;10.340;2022-10-18T05:28:35;8.43;;;7.63;;
27921;SDS011;15261;50.356;10.340;2022-10-18T05:31:02;19.10;;;7.95;;
27921;SDS011;15261;50.356;10.340;2022-10-18T05:33:29;10.02;;;8.10;;
27921;SDS011;15261;50.356;10.340;2022-10-18T05:35:55;11.18;;;10.20;;
27921;SDS011;15261;50.356;10.340;2022-10-18T05:41:18;10.68;;;9.65;;
27921;SDS011;15261;50.356;10.340;2022-10-18T05:43:43;10.48;;;9.18;;
27921;SDS011;15261;50.356;10.340;2022-10-18T05:46:09;11.73;;;9.88;;
27921;SDS011;15261;50.356;10.340;2022-10-18T05:48:36;12.15;;;8.98;;
27921;SDS011;15261;50.356;10.340;2022-10-18T05:51:01;11.13;;;9.18;;
27921;SDS011;15261;50.356;10.340;2022-10-18T05:53:27;11.30;;;9.10;;
27921;SDS011;15261;50.356;10.340;2022-10-18T05:55:53;9.35;;;8.45;;
27921;SDS011;15261;50.356;10.340;2022-10-18T05:58:18;9.77;;;8.77;;
27921;SDS011;15261;50.356;10.340;2022-10-18T06:00:44;11.20;;;10.20;;
27921;SDS011;15261;50.356;10.340;2022-10-18T06:03:10;11.68;;;10.48;;
27921;SDS011;15261;50.356;10.340;2022-10-18T06:05:35;12.82;;;11.63;;
27921;SDS011;15261;50.356;10.340;2022-10-18T06:08:01;13.18;;;11.93;;
27921;SDS011;15261;50.356;10.340;2022-10-18T06:10:27;18.83;;;17.23;;
27921;SDS011;15261;50.356;10.340;2022-10-18T06:12:52;21.00;;;19.17;;
27921;SDS011;15261;50.356;10.340;2022-10-18T06:15:18;50.78;;;45.72;;
27921;SDS011;15261;50.356;10.340;2022-10-18T06:17:43;30.45;;;27.35;;
27921;SDS011;15261;50.356;10.340;2022-10-18T06:20:09;13.77;;;12.35;;
27921;SDS011;15261;50.356;10.340;2022-10-18T06:22:34;15.25;;;13.73;;
27921;SDS011;15261;50.356;10.340;2022-10-18T06:25:00;11.40;;;10.02;;
27921;SDS011;15261;50.356;10.340;2022-10-18T06:27:25;12.95;;;9.98;;
27921;SDS011;15261;50.356;10.340;2022-10-18T06:29:51;14.07;;;10.45;;
27921;SDS011;15261;50.356;10.340;2022-10-18T06:32:16;11.55;;;10.18;;
27921;SDS011;15261;50.356;10.340;2022-10-18T06:34:43;12.10;;;10.80;;
27921;SDS011;15261;50.356;10.340;2022-10-18T06:37:09;29.27;;;26.40;;
27921;SDS011;15261;50.356;10.340;2022-10-18T06:39:35;18.27;;;16.58;;
27921;SDS011;15261;50.356;10.340;2022-10-18T06:42:00;16.00;;;14.60;;
27921;SDS011;15261;50.356;10.340;2022-10-18T06:44:26;12.00;;;10.82;;
27921;SDS011;15261;50.356;10.340;2022-10-18T06:46:51;10.95;;;9.95;;
27921;SDS011;15261;50.356;10.340;2022-10-18T06:49:17;11.32;;;10.10;;
27921;SDS011;15261;50.356;10.340;2022-10-18T06:51:43;15.52;;;13.30;;
27921;SDS011;15261;50.356;10.340;2022-10-18T06:54:09;15.82;;;14.32;;
27921;SDS011;15261;50.356;10.340;2022-10-18T06:56:35;15.93;;;11.85;;
27921;SDS011;15261;50.356;10.340;2022-10-18T06:59:02;12.27;;;11.05;;
27921;SDS011;15261;50.356;10.340;2022-10-18T07:01:28;11.70;;;10.48;;
27921;SDS011;15261;50.356;10.340;2022-10-18T07:03:54;12.35;;;11.13;;
27921;SDS011;15261;50.356;10.340;2022-10-18T07:06:20;10.52;;;9.43;;
27921;SDS011;15261;50.356;10.340;2022-10-18T07:08:47;12.10;;;10.68;;
27921;SDS011;15261;50.356;10.340;2022-10-18T07:11:15;12.15;;;10.50;;
27921;SDS011;15261;50.356;10.340;2022-10-18T07:13:42;10.23;;;9.10;;
27921;SDS011;15261;50.356;10.340;2022-10-18T07:16:09;10.05;;;9.10;;
27921;SDS011;15261;50.356;10.340;2022-10-18T07:18:41;9.93;;;8.88;;
27921;SDS011;15261;50.356;10.340;2022-10-18T07:21:09;10.45;;;9.57;;
27921;SDS011;15261;50.356;10.340;2022-10-18T07:23:37;9.52;;;8.63;;
27921;SDS011;15261;50.356;10.340;2022-10-18T07:26:17;10.43;;;9.38;;
27921;SDS011;15261;50.356;10.340;2022-10-18T07:29:14;11.82;;;10.73;;
27921;SDS011;15261;50.356;10.340;2022-10-18T07:31:39;13.73;;;10.52;;
27921;SDS011;15261;50.356;10.340;2022-10-18T07:34:05;11.25;;;10.15;;
27921;SDS011;15261;50.356;10.340;2022-10-18T07:36:32;11.32;;;10.23;;
27921;SDS011;15261;50.356;10.340;2022-10-18T07:38:58;11.65;;;10.45;;
27921;SDS011;15261;50.356;10.340;2022-10-18T07:41:23;11.13;;;10.02;;
27921;SDS011;15261;50.356;10.340;2022-10-18T07:43:50;11.13;;;10.10;;
27921;SDS011;15261;50.356;10.340;2022-10-18T07:46:17;9.68;;;8.77;;
27921;SDS011;15261;50.356;10.340;2022-10-18T07:48:43;9.90;;;9.10;;
27921;SDS011;15261;50.356;10.340;2022-10-18T07:51:09;10.25;;;8.95;;
27921;SDS011;15261;50.356;10.340;2022-10-18T07:53:35;10.55;;;8.60;;
27921;SDS011;15261;50.356;10.340;2022-10-18T07:56:05;11.52;;;9.35;;
27921;SDS011;15261;50.356;10.340;2022-10-18T07:58:35;11.38;;;10.32;;
27921;SDS011;15261;50.356;10.340;2022-10-18T08:01:02;9.90;;;8.88;;
27921;SDS011;15261;50.356;10.340;2022-10-18T08:03:28;10.55;;;9.32;;
27921;SDS011;15261;50.356;10.340;2022-10-18T08:05:54;11.38;;;10.38;;
27921;SDS011;15261;50.356;10.340;2022-10-18T08:08:20;13.10;;;11.80;;
27921;SDS011;15261;50.356;10.340;2022-10-18T08:10:47;19.58;;;17.52;;
27921;SDS011;15261;50.356;10.340;2022-10-18T08:13:13;16.98;;;15.27;;
27921;SDS011;15261;50.356;10.340;2022-10-18T08:15:39;14.43;;;12.88;;
27921;SDS011;15261;50.356;10.340;2022-10-18T08:18:05;10.40;;;9.00;;
27921;SDS011;15261;50.356;10.340;2022-10-18T08:20:31;9.77;;;8.32;;
27921;SDS011;15261;50.356;10.340;2022-10-18T08:22:57;14.65;;;11.43;;
27921;SDS011;15261;50.356;10.340;2022-10-18T08:25:23;14.65;;;13.23;;
27921;SDS011;15261;50.356;10.340;2022-10-18T08:27:48;11.77;;;10.50;;
27921;SDS011;15261;50.356;10.340;2022-10-18T08:30:14;10.05;;;9.10;;
27921;SDS011;15261;50.356;10.340;2022-10-18T08:32:40;10.60;;;9.32;;
27921;SDS011;15261;50.356;10.340;2022-10-18T08:35:05;11.65;;;8.85;;
27921;SDS011;15261;50.356;10.340;2022-10-18T08:37:31;10.30;;;8.50;;
27921;SDS011;15261;50.356;10.340;2022-10-18T08:39:57;15.88;;;8.27;;
27921;SDS011;15261;50.356;10.340;2022-10-18T08:45:07;9.80;;;8.77;;
27921;SDS011;15261;50.356;10.340;2022-10-18T08:47:40;10.52;;;9.05;;
27921;SDS011;15261;50.356;10.340;2022-10-18T08:50:20;9.68;;;8.60;;
27921;SDS011;15261;50.356;10.340;2022-10-18T08:55:31;11.13;;;9.25;;
27921;SDS011;15261;50.356;10.340;2022-10-18T08:58:16;10.25;;;9.32;;
27921;SDS011;15261;50.356;10.340;2022-10-18T09:04:24;10.05;;;9.15;;
27921;SDS011;15261;50.356;10.340;2022-10-18T09:14:43;10.35;;;9.35;;
27921;SDS011;15261;50.356;10.340;2022-10-18T09:17:27;15.50;;;9.77;;
27921;SDS011;15261;50.356;10.340;2022-10-18T09:20:09;11.30;;;10.20;;
27921;SDS011;15261;50.356;10.340;2022-10-18T09:23:13;12.95;;;10.60;;
27921;SDS011;15261;50.356;10.340;2022-10-18T09:25:48;12.25;;;10.15;;
27921;SDS011;15261;50.356;10.340;2022-10-18T09:34:09;13.60;;;10.48;;
27921;SDS011;15261;50.356;10.340;2022-10-18T09:36:55;12.90;;;11.50;;
27921;SDS011;15261;50.356;10.340;2022-10-18T09:39:21;11.80;;;10.60;;
27921;SDS011;15261;50.356;10.340;2022-10-18T09:41:53;12.25;;;10.93;;
27921;SDS011;15261;50.356;10.340;2022-10-18T09:46:55;13.63;;;11.82;;
27921;SDS011;15261;50.356;10.340;2022-10-18T09:49:46;22.20;;;13.23;;
27921;SDS011;15261;50.356;10.340;2022-10-18T09:52:18;18.30;;;13.48;;
27921;SDS011;15261;50.356;10.340;2022-10-18T09:54:59;14.43;;;13.05;;
27921;SDS011;15261;50.356;10.340;2022-10-18T09:57:39;16.98;;;13.45;;
27921;SDS011;15261;50.356;10.340;2022-10-18T10:00:14;15.00;;;13.35;;
27921;SDS011;15261;50.356;10.340;2022-10-18T10:02:44;27.90;;;15.63;;
27921;SDS011;15261;50.356;10.340;2022-10-18T10:05:13;29.65;;;21.48;;
27921;SDS011;15261;50.356;10.340;2022-10-18T10:07:43;28.63;;;23.83;;
27921;SDS011;15261;50.356;10.340;2022-10-18T10:10:21;20.05;;;18.15;;
27921;SDS011;15261;50.356;10.340;2022-10-18T10:13:01;16.77;;;14.82;;
27921;SDS011;15261;50.356;10.340;2022-10-18T10:15:26;15.63;;;13.85;;
27921;SDS011;15261;50.356;10.340;2022-10-18T10:18:35;17.17;;;14.38;;
27921;SDS011;15261;50.356;10.340;2022-10-18T10:20:44;14.98;;;13.48;;
27921;SDS011;15261;50.356;10.340;2022-10-18T10:23:14;14.00;;;12.55;;
27921;SDS011;15261;50.356;10.340;2022-10-18T10:25:40;14.15;;;12.95;;
27921;SDS011;15261;50.356;10.340;2022-10-18T10:28:14;13.77;;;12.38;;
27921;SDS011;15261;50.356;10.340;2022-10-18T10:30:43;14.57;;;13.07;;
27921;SDS011;15261;50.356;10.340;2022-10-18T10:33:31;13.00;;;11.70;;
27921;SDS011;15261;50.356;10.340;2022-10-18T10:36:00;15.35;;;13.73;;
27921;SDS011;15261;50.356;10.340;2022-10-18T10:38:28;16.48;;;14.80;;
27921;SDS011;15261;50.356;10.340;2022-10-18T10:40:55;14.10;;;12.65;;
27921;SDS011;15261;50.356;10.340;2022-10-18T10:43:28;16.23;;;13.75;;
27921;SDS011;15261;50.356;10.340;2022-10-18T10:46:01;13.60;;;12.35;;
27921;SDS011;15261;50.356;10.340;2022-10-18T10:48:33;12.98;;;11.88;;
27921;SDS011;15261;50.356;10.340;2022-10-18T10:54:05;12.65;;;10.90;;
27921;SDS011;15261;50.356;10.340;2022-10-18T10:59:26;13.07;;;11.73;;
27921;SDS011;15261;50.356;10.340;2022-10-18T11:04:43;12.63;;;11.15;;
27921;SDS011;15261;50.356;10.340;2022-10-18T11:07:12;11.85;;;10.68;;
27921;SDS011;15261;50.356;10.340;2022-10-18T11:10:00;12.95;;;10.88;;
27921;SDS011;15261;50.356;10.340;2022-10-18T11:22:40;8.52;;;7.72;;
27921;SDS011;15261;50.356;10.340;2022-10-18T11:25:22;9.00;;;8.23;;
27921;SDS011;15261;50.356;10.340;2022-10-18T11:28:02;8.50;;;7.80;;
27921;SDS011;15261;50.356;10.340;2022-10-18T11:33:30;11.15;;;10.13;;
27921;SDS011;15261;50.356;10.340;2022-10-18T11:36:26;16.17;;;14.55;;
27921;SDS011;15261;50.356;10.340;2022-10-18T11:42:20;14.52;;;13.18;;
27921;SDS011;15261;50.356;10.340;2022-10-18T11:47:39;30.42;;;26.77;;
27921;SDS011;15261;50.356;10.340;2022-10-18T11:55:49;13.18;;;11.55;;
27921;SDS011;15261;50.356;10.340;2022-10-18T11:58:37;15.48;;;13.98;;
27921;SDS011;15261;50.356;10.340;2022-10-18T12:04:10;13.60;;;12.43;;
27921;SDS011;15261;50.356;10.340;2022-10-18T12:06:41;41.03;;;37.10;;
27921;SDS011;15261;50.356;10.340;2022-10-18T12:11:56;16.20;;;13.85;;
27921;SDS011;15261;50.356;10.340;2022-10-18T12:14:27;15.05;;;13.50;;
27921;SDS011;15261;50.356;10.340;2022-10-18T12:16:57;15.95;;;14.38;;
27921;SDS011;15261;50.356;10.340;2022-10-18T12:19:27;11.57;;;10.52;;
27921;SDS011;15261;50.356;10.340;2022-10-18T12:21:55;15.35;;;10.73;;
27921;SDS011;15261;50.356;10.340;2022-10-18T12:24:27;11.13;;;10.23;;
27921;SDS011;15261;50.356;10.340;2022-10-18T12:26:57;10.65;;;9.68;;
27921;SDS011;15261;50.356;10.340;2022-10-18T12:29:33;11.93;;;10.45;;
27921;SDS011;15261;50.356;10.340;2022-10-18T12:32:15;10.93;;;9.98;;
27921;SDS011;15261;50.356;10.340;2022-10-18T12:34:45;10.95;;;9.88;;
27921;SDS011;15261;50.356;10.340;2022-10-18T12:37:15;9.70;;;8.70;;
27921;SDS011;15261;50.356;10.340;2022-10-18T12:39:48;3.17;;;2.97;;
27921;SDS011;15261;50.356;10.340;2022-10-18T12:42:24;5.78;;;1.80;;
27921;SDS011;15261;50.356;10.340;2022-10-18T12:47:36;2.05;;;1.20;;
27921;SDS011;15261;50.356;10.340;2022-10-18T12:50:03;3.78;;;1.20;;
27921;SDS011;15261;50.356;10.340;2022-10-18T12:53:00;3.50;;;0.82;;
27921;SDS011;15261;50.356;10.340;2022-10-18T12:55:48;1.40;;;0.77;;
27921;SDS011;15261;50.356;10.340;2022-10-18T13:16:02;2.83;;;2.22;;
27921;SDS011;15261;50.356;10.340;2022-10-18T13:18:51;4.63;;;4.18;;
27921;SDS011;15261;50.356;10.340;2022-10-18T13:24:25;1.17;;;1.08;;
27921;SDS011;15261;50.356;10.340;2022-10-18T13:29:54;1.75;;;0.68;;
27921;SDS011;15261;50.356;10.340;2022-10-18T13:32:34;0.80;;;0.80;;
27921;SDS011;15261;50.356;10.340;2022-10-18T13:41:13;1.30;;;0.60;;
27921;SDS011;15261;50.356;10.340;2022-10-18T13:52:04;1.10;;;0.80;;
27921;SDS011;15261;50.356;10.340;2022-10-18T14:11:40;1.00;;;1.00;;
27921;SDS011;15261;50.356;10.340;2022-10-18T14:16:58;1.13;;;1.13;;
27921;SDS011;15261;50.356;10.340;2022-10-18T14:19:30;1.20;;;1.10;;
27921;SDS011;15261;50.356;10.340;2022-10-18T14:24:38;0.93;;;0.70;;
27921;SDS011;15261;50.356;10.340;2022-10-18T14:27:18;1.00;;;1.00;;
27921;SDS011;15261;50.356;10.340;2022-10-18T14:29:45;0.95;;;0.95;;
27921;SDS011;15261;50.356;10.340;2022-10-18T14:32:30;2.15;;;0.90;;
27921;SDS011;15261;50.356;10.340;2022-10-18T14:34:57;2.45;;;0.82;;
27921;SDS011;15261;50.356;10.340;2022-10-18T14:37:32;2.95;;;1.00;;
27921;SDS011;15261;50.356;10.340;2022-10-18T14:39:59;2.33;;;1.00;;
27921;SDS011;15261;50.356;10.340;2022-10-18T14:42:26;0.88;;;0.80;;
27921;SDS011;15261;50.356;10.340;2022-10-18T14:44:52;0.82;;;0.82;;
27921;SDS011;15261;50.356;10.340;2022-10-18T14:47:20;1.05;;;0.90;;
27921;SDS011;15261;50.356;10.340;2022-10-18T14:49:52;1.10;;;0.90;;
27921;SDS011;15261;50.356;10.340;2022-10-18T14:52:31;0.77;;;0.77;;
27921;SDS011;15261;50.356;10.340;2022-10-18T14:54:58;0.90;;;0.90;;
27921;SDS011;15261;50.356;10.340;2022-10-18T14:57:31;0.90;;;0.90;;
27921;SDS011;15261;50.356;10.340;2022-10-18T15:00:04;1.98;;;1.10;;
27921;SDS011;15261;50.356;10.340;2022-10-18T15:02:34;1.20;;;1.10;;
27921;SDS011;15261;50.356;10.340;2022-10-18T15:07:42;1.52;;;1.42;;
27921;SDS011;15261;50.356;10.340;2022-10-18T15:10:18;1.35;;;1.25;;
27921;SDS011;15261;50.356;10.340;2022-10-18T15:12:47;0.90;;;0.90;;
27921;SDS011;15261;50.356;10.340;2022-10-18T15:15:16;2.97;;;1.00;;
27921;SDS011;15261;50.356;10.340;2022-10-18T15:17:46;1.23;;;1.10;;
27921;SDS011;15261;50.356;10.340;2022-10-18T15:20:23;1.20;;;1.10;;
27921;SDS011;15261;50.356;10.340;2022-10-18T15:22:52;1.10;;;1.10;;
27921;SDS011;15261;50.356;10.340;2022-10-18T15:25:39;1.85;;;0.98;;
27921;SDS011;15261;50.356;10.340;2022-10-18T15:28:04;1.02;;;1.02;;
27921;SDS011;15261;50.356;10.340;2022-10-18T15:30:37;1.40;;;1.30;;
27921;SDS011;15261;50.356;10.340;2022-10-18T15:33:06;3.72;;;1.30;;
27921;SDS011;15261;50.356;10.340;2022-10-18T15:35:36;3.85;;;1.10;;
27921;SDS011;15261;50.356;10.340;2022-10-18T15:41:01;1.95;;;1.23;;
27921;SDS011;15261;50.356;10.340;2022-10-18T15:43:46;1.50;;;1.40;;
27921;SDS011;15261;50.356;10.340;2022-10-18T15:46:27;2.60;;;1.35;;
27921;SDS011;15261;50.356;10.340;2022-10-18T15:48:54;4.47;;;1.63;;
27921;SDS011;15261;50.356;10.340;2022-10-18T15:51:47;2.72;;;1.63;;
27921;SDS011;15261;50.356;10.340;2022-10-18T15:54:17;4.22;;;2.00;;
27921;SDS011;15261;50.356;10.340;2022-10-18T15:56:43;5.45;;;2.08;;
27921;SDS011;15261;50.356;10.340;2022-10-18T15:59:22;3.80;;;1.67;;
27921;SDS011;15261;50.356;10.340;2022-10-18T16:04:45;52.70;;;30.48;;
27921;SDS011;15261;50.356;10.340;2022-10-18T16:09:42;43.00;;;38.50;;
27921;SDS011;15261;50.356;10.340;2022-10-18T16:12:08;33.42;;;25.33;;
27921;SDS011;15261;50.356;10.340;2022-10-18T16:14:33;19.88;;;6.93;;
27921;SDS011;15261;50.356;10.340;2022-10-18T16:17:02;27.08;;;6.65;;
27921;SDS011;15261;50.356;10.340;2022-10-18T16:19:30;38.88;;;8.90;;
27921;SDS011;15261;50.356;10.340;2022-10-18T16:21:56;40.92;;;7.32;;
27921;SDS011;15261;50.356;10.340;2022-10-18T16:24:23;27.58;;;7.13;;
27921;SDS011;15261;50.356;10.340;2022-10-18T16:29:22;16.83;;;3.63;;
27921;SDS011;15261;50.356;10.340;2022-10-18T16:31:55;8.73;;;2.63;;
27921;SDS011;15261;50.356;10.340;2022-10-18T16:34:22;12.02;;;2.95;;
27921;SDS011;15261;50.356;10.340;2022-10-18T16:36:50;5.10;;;3.63;;
27921;SDS011;15261;50.356;10.340;2022-10-18T16:39:16;8.05;;;3.53;;
27921;SDS011;15261;50.356;10.340;2022-10-18T16:41:44;11.35;;;6.90;;
27921;SDS011;15261;50.356;10.340;2022-10-18T16:44:10;34.40;;;28.80;;
27921;SDS011;15261;50.356;10.340;2022-10-18T16:46:36;29.10;;;26.00;;
27921;SDS011;15261;50.356;10.340;2022-10-18T16:49:02;22.40;;;19.50;;
27921;SDS011;15261;50.356;10.340;2022-10-18T16:51:29;21.75;;;19.48;;
27921;SDS011;15261;50.356;10.340;2022-10-18T16:53:58;19.02;;;17.02;;
27921;SDS011;15261;50.356;10.340;2022-10-18T16:56:24;20.80;;;17.70;;
27921;SDS011;15261;50.356;10.340;2022-10-18T16:58:53;29.65;;;23.73;;
27921;SDS011;15261;50.356;10.340;2022-10-18T17:01:19;17.58;;;15.88;;
27921;SDS011;15261;50.356;10.340;2022-10-18T17:03:46;45.50;;;40.88;;
27921;SDS011;15261;50.356;10.340;2022-10-18T17:06:30;25.90;;;23.27;;
27921;SDS011;15261;50.356;10.340;2022-10-18T17:12:06;14.25;;;12.75;;
27921;SDS011;15261;50.356;10.340;2022-10-18T17:17:24;13.68;;;10.05;;
27921;SDS011;15261;50.356;10.340;2022-10-18T17:19:50;8.05;;;6.10;;
27921;SDS011;15261;50.356;10.340;2022-10-18T17:25:29;6.88;;;5.60;;
27921;SDS011;15261;50.356;10.340;2022-10-18T17:27:54;7.25;;;5.30;;
27921;SDS011;15261;50.356;10.340;2022-10-18T17:33:18;7.88;;;5.55;;
27921;SDS011;15261;50.356;10.340;2022-10-18T17:38:32;5.30;;;4.25;;
27921;SDS011;15261;50.356;10.340;2022-10-18T17:40:57;8.02;;;3.75;;
27921;SDS011;15261;50.356;10.340;2022-10-18T17:46:20;5.20;;;3.15;;
27921;SDS011;15261;50.356;10.340;2022-10-18T17:51:46;19.70;;;11.27;;
27921;SDS011;15261;50.356;10.340;2022-10-18T17:54:22;19.23;;;7.95;;
27921;SDS011;15261;50.356;10.340;2022-10-18T17:56:52;17.50;;;6.43;;
27921;SDS011;15261;50.356;10.340;2022-10-18T18:05:16;3.95;;;2.65;;